Time,TemperatureF,DewpointF,PressureIn,WindDirection,WindDirectionDegrees,WindSpeedMPH,WindSpeedGustMPH,Humidity,HourlyPrecipIn,Conditions,Clouds,dailyrainin,SoftwareType,DateUTC
2013-08-25 00:02:00,81.5,27.7,30.01,East,90,4.6,4.6,14,0.00,CLR,,0.00,WeatherDisplay:10.37,2013-08-25 05:02:00,
2013-08-25 00:07:00,81.3,27.5,30.04,NE,45,6.9,6.9,14,0.00,CLR,,0.00,WeatherDisplay:10.37,2013-08-25 05:07:00,
2013-08-25 00:12:00,81.1,66.4,30.04,ESE,112,3.5,3.5,61,0.00,CLR,,0.00,WeatherDisplay:10.37,2013-08-25 05:12:00,
2013-08-25 00:17:00,81.0,27.3,30.04,ESE,112,2.3,2.3,14,0.00,CLR,,0.00,WeatherDisplay:10.37,2013-08-25 05:17:00,
2013-08-25 00:22:00,80.8,27.1,30.04,NE,45,3.5,3.5,14,0.00,CLR,,0.00,WeatherDisplay:10.37,2013-08-25 05:22:00,
2013-08-25 00:28:00,80.6,27.0,30.04,ESE,112,2.3,2.3,14,0.00,CLR,,0.00,WeatherDisplay:10.37,2013-08-25 05:28:00,
2013-08-25 00:33:00,80.4,30.1,30.04,East,90,2.3,2.3,16,0.00,CLR,,0.00,WeatherDisplay:10.37,2013-08-25 05:33:00,
2013-08-25 00:38:00,80.2,31.4,30.04,ESE,112,3.5,3.5,17,0.00,CLR,,0.00,WeatherDisplay:10.37,2013-08-25 05:38:00,
2013-08-25 00:43:00,80.1,31.3,30.04,ESE,112,3.5,3.5,17,0.00,CLR,,0.00,WeatherDisplay:10.37,2013-08-25 05:43:00,
2013-08-25 00:48:00,79.9,31.2,30.04,ESE,112,3.5,3.5,17,0.00,CLR,,0.00,WeatherDisplay:10.37,2013-08-25 05:48:00,
2013-08-25 00:53:00,79.5,33.6,30.04,East,90,1.4,1.6,19,0.00,CLR,,0.00,WeatherDisplay:10.37,2013-08-25 05:53:00,
2013-08-25 00:58:00,79.3,34.8,30.04,SE,135,1.2,0.0,20,0.00,CLR,,0.00,WeatherDisplay:10.37,2013-08-25 05:58:00,
2013-08-25 01:03:00,79.2,34.6,30.04,SE,135,0.0,0.0,20,0.00,CLR,,0.00,WeatherDisplay:10.37,2013-08-25 06:03:00,
2013-08-25 01:08:00,79.0,34.5,30.04,SE,135,0.0,0.0,20,0.00,CLR,,0.00,WeatherDisplay:10.37,2013-08-25 06:08:00,
2013-08-25 01:13:00,78.6,34.2,30.04,SE,135,1.2,1.2,20,0.00,CLR,,0.00,WeatherDisplay:10.37,2013-08-25 06:13:00,
2013-08-25 01:18:00,78.4,35.2,30.04,SE,135,0.0,0.0,21,0.00,CLR,,0.00,WeatherDisplay:10.37,2013-08-25 06:18:00,
2013-08-25 01:23:00,78.3,35.1,30.04,SE,135,0.0,0.0,21,0.00,CLR,,0.00,WeatherDisplay:10.37,2013-08-25 06:23:00,
2013-08-25 01:28:00,78.1,35.0,30.04,SE,135,0.0,0.0,21,0.00,CLR,,0.00,WeatherDisplay:10.37,2013-08-25 06:28:00,
2013-08-25 01:33:00,77.7,35.8,30.04,SE,135,0.0,0.0,22,0.00,CLR,,0.00,WeatherDisplay:10.37,2013-08-25 06:33:00,
2013-08-25 01:38:00,77.4,35.5,30.04,SE,135,0.0,0.0,22,0.00,CLR,,0.00,WeatherDisplay:10.37,2013-08-25 06:38:00,
2013-08-25 01:43:00,77.0,36.3,30.04,SE,135,0.0,0.0,23,0.00,CLR,,0.00,WeatherDisplay:10.37,2013-08-25 06:43:00,
2013-08-25 01:48:00,76.8,36.2,30.04,SE,135,0.0,0.0,23,0.00,CLR,,0.00,WeatherDisplay:10.37,2013-08-25 06:48:00,
2013-08-25 01:53:00,76.5,37.0,30.04,SE,135,0.0,0.0,24,0.00,CLR,,0.00,WeatherDisplay:10.37,2013-08-25 06:53:00,
2013-08-25 01:58:00,76.3,36.8,30.04,SE,135,0.0,0.0,24,0.00,CLR,,0.00,WeatherDisplay:10.37,2013-08-25 06:58:00,
2013-08-25 02:03:00,76.1,37.7,30.04,SE,135,0.0,0.0,25,0.00,CLR,,0.00,WeatherDisplay:10.37,2013-08-25 07:03:00,
2013-08-25 02:08:00,75.7,38.4,30.04,SE,135,0.0,0.0,26,0.00,CLR,,0.00,WeatherDisplay:10.37,2013-08-25 07:08:00,
2013-08-25 02:13:00,75.7,38.4,30.04,SE,135,0.0,0.0,26,0.00,CLR,,0.00,WeatherDisplay:10.37,2013-08-25 07:13:00,
2013-08-25 02:18:00,75.6,37.2,30.04,SE,135,0.0,0.0,25,0.00,CLR,,0.00,WeatherDisplay:10.37,2013-08-25 07:18:00,
2013-08-25 02:23:00,75.4,38.1,30.04,SE,135,0.0,0.0,26,0.00,CLR,,0.00,WeatherDisplay:10.37,2013-08-25 07:23:00,
2013-08-25 02:29:00,75.4,38.1,30.04,SE,135,0.0,0.0,26,0.00,CLR,,0.00,WeatherDisplay:10.37,2013-08-25 07:29:00,
2013-08-25 02:34:00,75.2,38.9,30.04,SE,135,0.0,0.0,27,0.00,CLR,,0.00,WeatherDisplay:10.37,2013-08-25 07:34:00,
2013-08-25 02:39:00,75.0,38.8,30.04,SE,135,0.0,0.0,27,0.00,CLR,,0.00,WeatherDisplay:10.37,2013-08-25 07:39:00,
2013-08-25 02:44:00,75.0,38.8,30.04,SE,135,0.0,0.0,27,0.00,CLR,,0.00,WeatherDisplay:10.37,2013-08-25 07:44:00,
2013-08-25 02:49:00,74.8,39.5,30.04,SE,135,0.0,0.0,28,0.00,CLR,,0.00,WeatherDisplay:10.37,2013-08-25 07:49:00,
2013-08-25 02:54:00,74.7,38.4,30.04,SE,135,0.0,0.0,27,0.00,CLR,,0.00,WeatherDisplay:10.37,2013-08-25 07:54:00,
2013-08-25 02:59:00,74.5,39.2,30.04,SE,135,0.0,0.0,28,0.00,CLR,,0.00,WeatherDisplay:10.37,2013-08-25 07:59:00,
2013-08-25 03:04:00,74.5,39.2,30.04,SE,135,0.0,0.0,28,0.00,CLR,,0.00,WeatherDisplay:10.37,2013-08-25 08:04:00,
2013-08-25 03:09:00,74.5,39.2,30.04,SE,135,0.0,0.0,28,0.00,CLR,,0.00,WeatherDisplay:10.37,2013-08-25 08:09:00,
2013-08-25 03:14:00,74.5,40.1,30.04,SE,135,0.0,0.0,29,0.00,CLR,,0.00,WeatherDisplay:10.37,2013-08-25 08:14:00,
2013-08-25 03:19:00,74.3,40.0,30.04,SE,135,0.0,0.0,29,0.00,CLR,,0.00,WeatherDisplay:10.37,2013-08-25 08:19:00,
2013-08-25 03:24:00,74.1,39.8,30.04,SE,135,0.0,0.0,29,0.00,CLR,,0.00,WeatherDisplay:10.37,2013-08-25 08:24:00,
2013-08-25 03:29:00,74.1,39.8,30.04,SE,135,0.0,0.0,29,0.00,CLR,,0.00,WeatherDisplay:10.37,2013-08-25 08:29:00,
2013-08-25 03:34:00,74.1,39.8,30.04,SE,135,0.0,0.0,29,0.00,CLR,,0.00,WeatherDisplay:10.37,2013-08-25 08:34:00,
2013-08-25 03:39:00,73.9,39.7,30.04,SE,135,0.0,0.0,29,0.00,CLR,,0.00,WeatherDisplay:10.37,2013-08-25 08:39:00,
2013-08-25 03:44:00,73.9,40.5,30.04,SE,135,0.0,0.0,30,0.00,CLR,,0.00,WeatherDisplay:10.37,2013-08-25 08:44:00,
2013-08-25 03:49:00,73.9,39.7,30.07,SE,135,0.0,0.0,29,0.00,CLR,,0.00,WeatherDisplay:10.37,2013-08-25 08:49:00,
2013-08-25 03:54:00,73.9,39.7,30.07,ESE,112,2.3,0.0,29,0.00,CLR,,0.00,WeatherDisplay:10.37,2013-08-25 08:54:00,
2013-08-25 03:59:00,73.9,39.7,30.07,ESE,112,1.2,0.0,29,0.00,CLR,,0.00,WeatherDisplay:10.37,2013-08-25 08:59:00,
2013-08-25 04:04:00,73.9,39.7,30.04,ESE,112,1.2,0.0,29,0.00,CLR,,0.00,WeatherDisplay:10.37,2013-08-25 09:04:00,
2013-08-25 04:09:00,73.9,39.7,30.04,ESE,112,0.0,0.0,29,0.00,CLR,,0.00,WeatherDisplay:10.37,2013-08-25 09:09:00,
2013-08-25 04:14:00,73.8,40.4,30.04,ESE,112,0.0,0.0,30,0.00,CLR,,0.00,WeatherDisplay:10.37,2013-08-25 09:14:00,
2013-08-25 04:19:00,73.6,40.2,30.04,NE,45,0.0,0.0,30,0.00,CLR,,0.00,WeatherDisplay:10.37,2013-08-25 09:19:00,
2013-08-25 04:24:00,73.4,40.1,30.04,NE,45,1.2,0.0,30,0.00,CLR,,0.00,WeatherDisplay:10.37,2013-08-25 09:24:00,
2013-08-25 04:29:00,73.4,40.1,30.04,North,0,1.2,0.0,30,0.00,CLR,,0.00,WeatherDisplay:10.37,2013-08-25 09:29:00,
2013-08-25 04:34:00,73.6,40.2,30.04,North,0,0.0,0.0,30,0.00,CLR,,0.00,WeatherDisplay:10.37,2013-08-25 09:34:00,
2013-08-25 04:39:00,73.6,40.2,30.04,North,0,1.2,1.2,30,0.00,CLR,,0.00,WeatherDisplay:10.37,2013-08-25 09:39:00,
2013-08-25 04:44:00,73.6,39.4,30.04,North,0,1.2,1.6,29,0.00,CLR,,0.00,WeatherDisplay:10.37,2013-08-25 09:44:00,
2013-08-25 04:49:00,73.6,39.4,30.04,North,0,0.0,0.0,29,0.00,CLR,,0.00,WeatherDisplay:10.37,2013-08-25 09:49:00,
2013-08-25 04:54:00,73.4,39.2,30.04,North,0,0.0,0.0,29,0.00,CLR,,0.00,WeatherDisplay:10.37,2013-08-25 09:54:00,
2013-08-25 04:59:00,73.4,39.2,30.04,North,0,1.2,0.0,29,0.00,CLR,,0.00,WeatherDisplay:10.37,2013-08-25 09:59:00,
2013-08-25 05:04:00,73.2,39.0,30.04,North,0,2.3,0.0,29,0.00,CLR,,0.00,WeatherDisplay:10.37,2013-08-25 10:04:00,
2013-08-25 05:09:00,73.0,38.9,30.04,North,0,0.0,0.0,29,0.00,CLR,,0.00,WeatherDisplay:10.37,2013-08-25 10:09:00,
2013-08-25 05:14:00,72.9,39.6,30.04,North,0,0.0,0.0,30,0.00,CLR,,0.00,WeatherDisplay:10.37,2013-08-25 10:14:00,
2013-08-25 05:19:00,72.7,40.3,30.04,North,0,0.0,0.0,31,0.00,CLR,,0.00,WeatherDisplay:10.37,2013-08-25 10:19:00,
2013-08-25 05:24:00,72.7,39.4,30.04,North,0,0.0,0.0,30,0.00,CLR,,0.00,WeatherDisplay:10.37,2013-08-25 10:24:00,
2013-08-25 05:30:00,72.7,39.4,30.04,North,0,2.3,2.3,30,0.00,CLR,,0.00,WeatherDisplay:10.37,2013-08-25 10:30:00,
2013-08-25 05:35:00,72.7,39.4,30.04,North,0,1.2,0.0,30,0.00,CLR,,0.00,WeatherDisplay:10.37,2013-08-25 10:35:00,
2013-08-25 05:40:00,72.7,39.4,30.04,North,0,0.0,0.0,30,0.00,CLR,,0.00,WeatherDisplay:10.37,2013-08-25 10:40:00,
2013-08-25 05:45:00,72.7,39.4,30.04,North,0,0.0,0.0,30,0.00,CLR,,0.00,WeatherDisplay:10.37,2013-08-25 10:45:00,
2013-08-25 05:50:00,72.5,39.3,30.04,North,0,0.0,0.0,30,0.00,CLR,,0.00,WeatherDisplay:10.37,2013-08-25 10:50:00,
2013-08-25 05:55:00,72.3,40.0,30.04,North,0,0.0,0.0,31,0.00,CLR,,0.00,WeatherDisplay:10.37,2013-08-25 10:55:00,
2013-08-25 06:00:00,72.3,40.0,30.04,North,0,0.0,0.0,31,0.00,CLR,,0.00,WeatherDisplay:10.37,2013-08-25 11:00:00,
2013-08-25 06:05:00,72.3,40.0,30.04,North,0,1.2,0.0,31,0.00,CLR,,0.00,WeatherDisplay:10.37,2013-08-25 11:05:00,
2013-08-25 06:10:00,72.3,40.0,30.04,North,0,2.3,2.3,31,0.00,CLR,,0.00,WeatherDisplay:10.37,2013-08-25 11:10:00,
2013-08-25 06:15:00,72.3,40.0,30.04,North,0,1.2,0.0,31,0.00,CLR,,0.00,WeatherDisplay:10.37,2013-08-25 11:15:00,
2013-08-25 06:20:00,72.5,39.3,30.04,NNW,338,2.3,2.3,30,0.00,CLR,,0.00,WeatherDisplay:10.37,2013-08-25 11:20:00,
2013-08-25 06:25:00,72.5,39.3,30.04,NNW,338,0.0,0.0,30,0.00,CLR,,0.00,WeatherDisplay:10.37,2013-08-25 11:25:00,
2013-08-25 06:30:00,72.5,39.3,30.04,NNW,338,0.0,0.0,30,0.00,CLR,,0.00,WeatherDisplay:10.37,2013-08-25 11:30:00,
2013-08-25 06:35:00,72.5,39.3,30.04,NNW,338,0.0,0.0,30,0.00,CLR,,0.00,WeatherDisplay:10.37,2013-08-25 11:35:00,
2013-08-25 06:40:00,72.3,40.0,30.04,NNW,338,0.0,0.0,31,0.00,CLR,,0.00,WeatherDisplay:10.37,2013-08-25 11:40:00,
2013-08-25 06:45:00,72.3,40.0,30.04,NNW,338,0.0,0.0,31,0.00,CLR,,0.00,WeatherDisplay:10.37,2013-08-25 11:45:00,
2013-08-25 06:50:00,72.1,39.8,30.01,NNW,338,0.0,0.0,31,0.00,CLR,,0.00,WeatherDisplay:10.37,2013-08-25 11:50:00,
2013-08-25 06:55:00,72.0,39.7,30.01,NNW,338,0.0,0.0,31,0.00,CLR,,0.00,WeatherDisplay:10.37,2013-08-25 11:55:00,
2013-08-25 07:01:00,72.1,39.8,30.01,NNW,338,1.2,1.2,31,0.00,CLR,,0.00,WeatherDisplay:10.37,2013-08-25 12:01:00,
2013-08-25 07:06:00,72.1,39.8,30.04,NNE,22,1.2,1.2,31,0.00,CLR,,0.00,WeatherDisplay:10.37,2013-08-25 12:06:00,
2013-08-25 07:11:00,72.0,39.7,30.04,North,0,0.0,0.0,31,0.00,CLR,,0.00,WeatherDisplay:10.37,2013-08-25 12:11:00,
2013-08-25 07:16:00,72.0,39.7,30.04,NW,315,2.3,2.3,31,0.00,CLR,,0.00,WeatherDisplay:10.37,2013-08-25 12:16:00,
2013-08-25 07:21:00,72.0,39.7,30.04,NW,315,1.2,1.2,31,0.00,CLR,,0.00,WeatherDisplay:10.37,2013-08-25 12:21:00,
2013-08-25 07:26:00,72.1,39.8,30.04,NW,315,0.0,0.0,31,0.00,CLR,,0.00,WeatherDisplay:10.37,2013-08-25 12:26:00,
2013-08-25 07:31:00,72.1,39.8,30.04,NW,315,2.3,2.3,31,0.00,CLR,,0.00,WeatherDisplay:10.37,2013-08-25 12:31:00,
2013-08-25 07:36:00,72.1,39.8,30.04,NW,315,2.3,2.3,31,0.00,CLR,,0.00,WeatherDisplay:10.37,2013-08-25 12:36:00,
2013-08-25 07:41:00,72.7,40.3,30.04,NW,315,0.0,0.0,31,0.00,CLR,,0.00,WeatherDisplay:10.37,2013-08-25 12:41:00,
2013-08-25 07:46:00,73.0,39.8,30.04,NNW,338,2.3,2.3,30,0.00,CLR,,0.00,WeatherDisplay:10.37,2013-08-25 12:46:00,
2013-08-25 07:51:00,73.2,39.0,30.04,North,0,1.4,1.4,29,0.00,CLR,,0.00,WeatherDisplay:10.37,2013-08-25 12:51:00,
2013-08-25 07:56:00,73.6,39.4,30.04,ENE,68,3.5,3.5,29,0.00,CLR,,0.00,WeatherDisplay:10.37,2013-08-25 12:56:00,
2013-08-25 08:01:00,73.9,38.8,30.04,NNE,22,2.3,2.3,28,0.00,CLR,,0.00,WeatherDisplay:10.37,2013-08-25 13:01:00,
2013-08-25 08:06:00,74.3,68.1,30.07,NNE,22,2.3,2.3,81,0.00,CLR,,0.00,WeatherDisplay:10.37,2013-08-25 13:06:00,
2013-08-25 08:11:00,74.5,39.2,30.07,NW,315,1.2,1.2,28,0.00,CLR,,0.00,WeatherDisplay:10.37,2013-08-25 13:11:00,
2013-08-25 08:16:00,74.8,38.6,30.07,NNW,338,2.3,2.3,27,0.00,CLR,,0.00,WeatherDisplay:10.37,2013-08-25 13:16:00,
2013-08-25 08:21:00,75.2,38.9,30.04,NNW,338,3.5,3.5,27,0.00,CLR,,0.00,WeatherDisplay:10.37,2013-08-25 13:21:00,
2013-08-25 08:26:00,75.6,38.2,30.04,NE,45,3.5,3.5,26,0.00,CLR,,0.00,WeatherDisplay:10.37,2013-08-25 13:26:00,
2013-08-25 08:31:00,76.1,38.7,30.04,NNW,338,2.3,2.3,26,0.00,CLR,,0.00,WeatherDisplay:10.37,2013-08-25 13:31:00,
2013-08-25 08:36:00,76.5,39.0,30.04,NNE,22,2.3,2.3,26,0.00,CLR,,0.00,WeatherDisplay:10.37,2013-08-25 13:36:00,
2013-08-25 08:41:00,76.8,38.3,30.04,NW,315,2.3,2.4,25,0.00,CLR,,0.00,WeatherDisplay:10.37,2013-08-25 13:41:00,
2013-08-25 08:46:00,77.4,37.7,30.04,NW,315,2.3,2.3,24,0.00,CLR,,0.00,WeatherDisplay:10.37,2013-08-25 13:46:00,
2013-08-25 08:51:00,77.5,37.9,30.07,NW,315,3.5,3.5,24,0.00,CLR,,0.00,WeatherDisplay:10.37,2013-08-25 13:51:00,
2013-08-25 08:56:00,78.1,37.3,30.07,WNW,292,3.5,3.5,23,0.00,CLR,,0.00,WeatherDisplay:10.37,2013-08-25 13:56:00,
2013-08-25 09:01:00,78.6,36.6,30.07,NNW,338,3.5,3.5,22,0.00,CLR,,0.00,WeatherDisplay:10.37,2013-08-25 14:01:00,
2013-08-25 09:06:00,79.3,37.2,30.04,SE,135,2.3,2.3,22,0.00,CLR,,0.00,WeatherDisplay:10.37,2013-08-25 14:06:00,
2013-08-25 09:11:00,79.9,37.6,30.04,NW,315,2.3,2.3,22,0.00,CLR,,0.00,WeatherDisplay:10.37,2013-08-25 14:11:00,
2013-08-25 09:16:00,80.4,36.9,30.04,NW,315,5.8,5.8,21,0.00,CLR,,0.00,WeatherDisplay:10.37,2013-08-25 14:16:00,
2013-08-25 09:21:00,81.0,37.3,30.04,NE,45,2.3,2.3,21,0.00,CLR,,0.00,WeatherDisplay:10.37,2013-08-25 14:21:00,
2013-08-25 09:26:00,81.5,36.5,30.04,NNW,338,2.4,2.6,20,0.00,CLR,,0.00,WeatherDisplay:10.37,2013-08-25 14:26:00,
2013-08-25 09:31:00,81.9,36.8,30.04,WNW,292,3.5,3.5,20,0.00,CLR,,0.00,WeatherDisplay:10.37,2013-08-25 14:31:00,
2013-08-25 09:36:00,82.4,36.0,30.07,NW,315,5.8,5.8,19,0.00,CLR,,0.00,WeatherDisplay:10.37,2013-08-25 14:36:00,
2013-08-25 09:41:00,82.9,36.4,30.07,ENE,68,2.3,2.3,19,0.00,CLR,,0.00,WeatherDisplay:10.37,2013-08-25 14:41:00,
2013-08-25 09:46:00,83.1,36.6,30.07,NE,45,4.6,4.6,19,0.00,CLR,,0.00,WeatherDisplay:10.37,2013-08-25 14:46:00,
2013-08-25 09:51:00,83.7,37.0,30.04,NNE,22,3.5,3.8,19,0.00,CLR,,0.00,WeatherDisplay:10.37,2013-08-25 14:51:00,
2013-08-25 09:56:00,84.0,35.9,30.04,ENE,68,4.6,4.7,18,0.00,CLR,,0.00,WeatherDisplay:10.37,2013-08-25 14:56:00,
2013-08-25 10:01:00,84.4,36.2,30.04,North,0,4.6,4.6,18,0.00,CLR,,0.00,WeatherDisplay:10.37,2013-08-25 15:01:00,
2013-08-25 10:06:00,84.7,36.5,30.07,NNE,22,2.3,2.3,18,0.00,CLR,,0.00,WeatherDisplay:10.37,2013-08-25 15:06:00,
2013-08-25 10:11:00,84.9,36.7,30.07,NE,45,5.8,5.8,18,0.00,CLR,,0.00,WeatherDisplay:10.37,2013-08-25 15:11:00,
2013-08-25 10:16:00,85.5,37.1,30.07,North,0,5.8,5.8,18,0.00,CLR,,0.00,WeatherDisplay:10.37,2013-08-25 15:16:00,
2013-08-25 10:21:00,86.5,33.4,30.07,NNE,22,3.5,3.5,15,0.00,CLR,,0.00,WeatherDisplay:10.37,2013-08-25 15:21:00,
2013-08-25 10:26:00,87.1,33.8,30.07,NNW,338,8.1,8.1,15,0.00,CLR,,0.00,WeatherDisplay:10.37,2013-08-25 15:26:00,
2013-08-25 10:31:00,86.7,33.5,30.07,NE,45,5.8,5.8,15,0.00,CLR,,0.00,WeatherDisplay:10.37,2013-08-25 15:31:00,
2013-08-25 10:36:00,87.3,34.0,30.07,NNE,22,6.9,6.9,15,0.00,CLR,,0.00,WeatherDisplay:10.37,2013-08-25 15:36:00,
2013-08-25 10:41:00,87.3,34.0,30.07,NNE,22,4.6,4.6,15,0.00,CLR,,0.00,WeatherDisplay:10.37,2013-08-25 15:41:00,
2013-08-25 10:46:00,87.1,33.8,30.07,North,0,5.8,5.8,15,0.00,CLR,,0.00,WeatherDisplay:10.37,2013-08-25 15:46:00,
2013-08-25 10:51:00,87.6,28.7,30.07,NNW,338,8.1,8.1,12,0.00,SCT,,0.00,WeatherDisplay:10.37,2013-08-25 15:51:00,
2013-08-25 10:56:00,88.2,29.1,30.07,NNE,22,6.9,6.9,12,0.00,SCT,,0.00,WeatherDisplay:10.37,2013-08-25 15:56:00,
2013-08-25 11:01:00,87.8,28.9,30.07,ENE,68,7.1,7.1,12,0.00,SCT,,0.00,WeatherDisplay:10.37,2013-08-25 16:01:00,
2013-08-25 11:07:00,87.1,30.3,30.10,NNE,22,4.6,4.6,13,0.00,SCT,,0.00,WeatherDisplay:10.37,2013-08-25 16:07:00,
2013-08-25 11:12:00,88.7,29.6,30.10,NW,315,3.5,3.5,12,0.00,SCT,,0.00,WeatherDisplay:10.37,2013-08-25 16:12:00,
2013-08-25 11:17:00,89.2,67.0,30.10,North,0,5.9,5.9,48,0.00,SCT,,0.00,WeatherDisplay:10.37,2013-08-25 16:17:00,
2013-08-25 11:22:00,89.2,30.0,30.10,NNE,22,5.8,5.8,12,0.00,SCT,,0.00,WeatherDisplay:10.37,2013-08-25 16:22:00,
2013-08-25 11:27:00,89.1,29.8,30.10,NNW,338,5.8,5.8,12,0.00,SCT,,0.00,WeatherDisplay:10.37,2013-08-25 16:27:00,
2013-08-25 11:32:00,89.6,30.2,30.10,NE,45,6.9,6.9,12,0.00,SCT,,0.00,WeatherDisplay:10.37,2013-08-25 16:32:00,
2013-08-25 11:37:00,90.3,30.8,30.07,NE,45,9.2,9.2,12,0.00,SCT,,0.00,WeatherDisplay:10.37,2013-08-25 16:37:00,
2013-08-25 11:42:00,89.6,30.2,30.07,NE,45,6.9,6.9,12,0.00,SCT,,0.00,WeatherDisplay:10.37,2013-08-25 16:42:00,
2013-08-25 11:47:00,90.0,30.5,30.07,NW,315,5.8,5.8,12,0.00,SCT,,0.00,WeatherDisplay:10.37,2013-08-25 16:47:00,
2013-08-25 11:52:00,90.0,65.8,30.10,WNW,292,3.5,3.5,45,0.00,BKN,,0.00,WeatherDisplay:10.37,2013-08-25 16:52:00,
2013-08-25 11:57:00,89.2,65.1,30.10,East,90,4.6,4.6,45,0.00,BKN,,0.00,WeatherDisplay:10.37,2013-08-25 16:57:00,
2013-08-25 12:02:00,88.9,64.8,30.10,North,0,9.2,9.2,45,0.00,BKN,,0.00,WeatherDisplay:10.37,2013-08-25 17:02:00,
2013-08-25 12:07:00,89.8,65.6,30.07,NE,45,6.9,6.9,45,0.00,BKN,,0.00,WeatherDisplay:10.37,2013-08-25 17:07:00,
2013-08-25 12:12:00,91.2,67.5,30.07,NNE,22,6.9,6.9,46,0.00,BKN,,0.00,WeatherDisplay:10.37,2013-08-25 17:12:00,
2013-08-25 12:17:00,91.0,67.4,30.07,NE,45,8.1,8.1,46,0.00,BKN,,0.00,WeatherDisplay:10.37,2013-08-25 17:17:00,
2013-08-25 12:22:00,90.1,66.6,30.07,NE,45,9.2,9.2,46,0.00,BKN,,0.00,WeatherDisplay:10.37,2013-08-25 17:22:00,
2013-08-25 12:27:00,91.9,68.2,30.07,NNE,22,5.8,5.8,46,0.00,BKN,,0.00,WeatherDisplay:10.37,2013-08-25 17:27:00,
2013-08-25 12:32:00,92.1,66.4,30.07,NE,45,5.8,5.8,43,0.00,BKN,,0.00,WeatherDisplay:10.37,2013-08-25 17:32:00,
2013-08-25 12:37:00,92.7,66.9,30.04,NE,45,5.8,6.2,43,0.00,BKN,,0.00,WeatherDisplay:10.37,2013-08-25 17:37:00,
2013-08-25 12:42:00,93.6,67.7,30.04,WNW,292,8.1,8.1,43,0.00,BKN,,0.00,WeatherDisplay:10.37,2013-08-25 17:42:00,
2013-08-25 12:48:00,94.1,68.2,30.04,North,0,6.4,6.9,43,0.00,BKN,,0.00,WeatherDisplay:10.37,2013-08-25 17:48:00,
2013-08-25 12:53:00,94.5,63.4,30.04,NE,45,4.6,4.7,36,0.00,BKN,,0.00,WeatherDisplay:10.37,2013-08-25 17:53:00,
2013-08-25 12:58:00,95.0,63.9,30.04,North,0,9.2,9.2,36,0.00,BKN,,0.00,WeatherDisplay:10.37,2013-08-25 17:58:00,
2013-08-25 13:03:00,95.4,64.2,30.04,NE,45,8.1,8.1,36,0.00,BKN,,0.00,WeatherDisplay:10.37,2013-08-25 18:03:00,
2013-08-25 13:08:00,95.4,64.2,30.04,NE,45,8.5,8.5,36,0.00,BKN,,0.00,WeatherDisplay:10.37,2013-08-25 18:08:00,
2013-08-25 13:13:00,94.6,63.5,30.04,NNE,22,8.1,8.1,36,0.00,BKN,,0.00,WeatherDisplay:10.37,2013-08-25 18:13:00,
2013-08-25 13:18:00,94.8,63.7,30.04,North,0,6.9,6.9,36,0.00,BKN,,0.00,WeatherDisplay:10.37,2013-08-25 18:18:00,
2013-08-25 13:23:00,94.3,63.2,30.04,NE,45,3.5,4.3,36,0.00,BKN,,0.00,WeatherDisplay:10.37,2013-08-25 18:23:00,
2013-08-25 13:28:00,93.4,62.4,30.04,WNW,292,7.6,7.6,36,0.00,BKN,,0.00,WeatherDisplay:10.37,2013-08-25 18:28:00,
2013-08-25 13:33:00,93.6,62.6,30.04,North,0,3.5,4.0,36,0.00,BKN,,0.00,WeatherDisplay:10.37,2013-08-25 18:33:00,
2013-08-25 13:38:00,95.9,64.7,30.04,NE,45,5.8,5.8,36,0.00,BKN,,0.00,WeatherDisplay:10.37,2013-08-25 18:38:00,
2013-08-25 13:43:00,96.6,65.3,30.04,East,90,5.8,6.0,36,0.00,BKN,,0.00,WeatherDisplay:10.37,2013-08-25 18:43:00,
2013-08-25 13:48:00,95.9,64.7,30.04,ENE,68,8.1,8.1,36,0.00,BKN,,0.00,WeatherDisplay:10.37,2013-08-25 18:48:00,
2013-08-25 13:53:00,95.0,61.4,30.04,West,270,5.8,5.8,33,0.00,SCT,,0.00,WeatherDisplay:10.37,2013-08-25 18:53:00,
2013-08-25 13:58:00,95.2,61.5,30.04,NNE,22,5.8,6.9,33,0.00,SCT,,0.00,WeatherDisplay:10.37,2013-08-25 18:58:00,
2013-08-25 14:03:00,95.7,62.0,30.04,WNW,292,6.9,6.9,33,0.00,SCT,,0.00,WeatherDisplay:10.37,2013-08-25 19:03:00,
2013-08-25 14:08:00,94.6,61.1,30.04,NNE,22,5.8,7.1,33,0.00,SCT,,0.00,WeatherDisplay:10.37,2013-08-25 19:08:00,
2013-08-25 14:13:00,94.8,62.9,30.04,ENE,68,4.6,4.6,35,0.00,BKN,,0.00,WeatherDisplay:10.37,2013-08-25 19:13:00,
2013-08-25 14:18:00,96.6,64.5,30.04,WNW,292,5.8,5.9,35,0.00,BKN,,0.00,WeatherDisplay:10.37,2013-08-25 19:18:00,
2013-08-25 14:23:00,96.8,64.6,30.04,ENE,68,8.1,8.1,35,0.00,BKN,,0.00,WeatherDisplay:10.37,2013-08-25 19:23:00,
2013-08-25 14:28:00,95.4,63.4,30.04,WNW,292,6.9,6.9,35,0.00,BKN,,0.00,WeatherDisplay:10.37,2013-08-25 19:28:00,
2013-08-25 14:33:00,95.2,59.8,30.04,North,0,5.8,5.8,31,0.00,SCT,,0.00,WeatherDisplay:10.37,2013-08-25 19:33:00,
2013-08-25 14:39:00,97.2,61.5,30.01,ENE,68,8.1,8.1,31,0.00,SCT,,0.00,WeatherDisplay:10.37,2013-08-25 19:39:00,
2013-08-25 14:44:00,97.2,61.5,30.01,North,0,5.8,5.8,31,0.00,SCT,,0.00,WeatherDisplay:10.37,2013-08-25 19:44:00,
2013-08-25 14:49:00,97.5,61.8,30.01,NE,45,6.0,6.0,31,0.00,SCT,,0.00,WeatherDisplay:10.37,2013-08-25 19:49:00,
2013-08-25 14:54:00,95.2,62.4,30.01,WNW,292,6.9,6.9,34,0.00,BKN,,0.00,WeatherDisplay:10.37,2013-08-25 19:54:00,
2013-08-25 14:59:00,94.8,62.1,30.01,ENE,68,5.8,5.8,34,0.00,BKN,,0.00,WeatherDisplay:10.37,2013-08-25 19:59:00,
2013-08-25 15:04:00,96.4,63.5,30.01,ENE,68,8.1,8.1,34,0.00,BKN,,0.00,WeatherDisplay:10.37,2013-08-25 20:04:00,
2013-08-25 15:09:00,97.9,64.7,30.01,North,0,5.8,5.8,34,0.00,BKN,,0.00,WeatherDisplay:10.37,2013-08-25 20:09:00,
2013-08-25 15:14:00,98.1,64.9,30.01,East,90,5.8,5.8,34,0.00,BKN,,0.00,WeatherDisplay:10.37,2013-08-25 20:14:00,
2013-08-25 15:19:00,98.6,65.4,29.98,NE,45,6.9,6.9,34,0.00,BKN,,0.00,WeatherDisplay:10.37,2013-08-25 20:19:00,
2013-08-25 15:24:00,97.0,64.0,29.98,NE,45,5.8,5.8,34,0.00,BKN,,0.00,WeatherDisplay:10.37,2013-08-25 20:24:00,
2013-08-25 15:29:00,98.1,64.9,29.98,NE,45,8.1,8.1,34,0.00,BKN,,0.00,WeatherDisplay:10.37,2013-08-25 20:29:00,
2013-08-25 15:34:00,97.5,58.9,29.98,East,90,5.8,5.8,28,0.00,SCT,,0.00,WeatherDisplay:10.37,2013-08-25 20:34:00,
2013-08-25 15:39:00,98.8,60.0,29.98,NNE,22,5.8,5.8,28,0.00,SCT,,0.00,WeatherDisplay:10.37,2013-08-25 20:39:00,
2013-08-25 15:44:00,99.1,60.3,29.98,NNE,22,8.1,8.1,28,0.00,SCT,,0.00,WeatherDisplay:10.37,2013-08-25 20:44:00,
2013-08-25 15:49:00,98.4,59.7,29.95,ESE,112,3.5,3.5,28,0.00,SCT,,0.00,WeatherDisplay:10.37,2013-08-25 20:49:00,
2013-08-25 15:54:00,98.4,60.7,29.95,NNE,22,9.2,9.2,29,0.00,SCT,,0.00,WeatherDisplay:10.37,2013-08-25 20:54:00,
2013-08-25 15:59:00,99.0,61.2,29.95,ENE,68,6.9,6.9,29,0.00,SCT,,0.00,WeatherDisplay:10.37,2013-08-25 20:59:00,
2013-08-25 16:04:00,99.7,61.8,29.98,NE,45,8.1,8.1,29,0.00,SCT,,0.00,WeatherDisplay:10.37,2013-08-25 21:04:00,
2013-08-25 16:09:00,100.0,62.1,29.98,NE,45,9.2,9.2,29,0.00,SCT,,0.00,WeatherDisplay:10.37,2013-08-25 21:09:00,
2013-08-25 16:14:00,100.8,61.7,29.98,NE,45,4.6,4.6,28,0.00,SCT,,0.00,WeatherDisplay:10.37,2013-08-25 21:14:00,
2013-08-25 16:19:00,99.7,60.8,29.98,ENE,68,5.8,5.8,28,0.00,SCT,,0.00,WeatherDisplay:10.37,2013-08-25 21:19:00,
2013-08-25 16:25:00,97.7,59.1,29.98,NNE,22,11.5,11.5,28,0.00,SCT,,0.00,WeatherDisplay:10.37,2013-08-25 21:25:00,
2013-08-25 16:30:00,96.8,58.3,29.98,NE,45,5.8,5.8,28,0.00,SCT,,0.00,WeatherDisplay:10.37,2013-08-25 21:30:00,
2013-08-25 16:35:00,96.8,59.3,29.98,NNE,22,7.1,7.4,29,0.00,BKN,,0.00,WeatherDisplay:10.37,2013-08-25 21:35:00,
2013-08-25 16:40:00,98.4,60.7,29.98,ENE,68,5.8,5.8,29,0.00,BKN,,0.00,WeatherDisplay:10.37,2013-08-25 21:40:00,
2013-08-25 16:45:00,97.5,59.9,29.98,NNE,22,6.9,6.9,29,0.00,BKN,,0.00,WeatherDisplay:10.37,2013-08-25 21:45:00,
2013-08-25 16:50:00,99.0,61.2,29.98,NE,45,4.6,4.6,29,0.00,BKN,,0.00,WeatherDisplay:10.37,2013-08-25 21:50:00,
2013-08-25 16:55:00,99.9,61.9,29.98,NE,45,5.8,5.8,29,0.00,BKN,,0.00,WeatherDisplay:10.37,2013-08-25 21:55:00,
2013-08-25 17:00:00,99.7,61.8,29.98,NE,45,6.9,6.9,29,0.00,BKN,,0.00,WeatherDisplay:10.37,2013-08-25 22:00:00,
2013-08-25 17:05:00,99.3,61.5,29.98,NNE,22,9.2,9.2,29,0.00,BKN,,0.00,WeatherDisplay:10.37,2013-08-25 22:05:00,
2013-08-25 17:10:00,100.2,62.2,29.98,NE,45,5.8,5.8,29,0.00,BKN,,0.00,WeatherDisplay:10.37,2013-08-25 22:10:00,
2013-08-25 17:15:00,100.4,62.4,29.98,NNE,22,5.8,5.8,29,0.00,SCT,,0.00,WeatherDisplay:10.37,2013-08-25 22:15:00,
2013-08-25 17:20:00,99.1,61.3,29.95,NE,45,10.4,10.4,29,0.00,SCT,,0.00,WeatherDisplay:10.37,2013-08-25 22:20:00,
2013-08-25 17:25:00,98.6,60.8,29.95,ENE,68,10.4,10.4,29,0.00,SCT,,0.00,WeatherDisplay:10.37,2013-08-25 22:25:00,
2013-08-25 17:30:00,99.0,61.2,29.95,NE,45,5.8,5.8,29,0.00,SCT,,0.00,WeatherDisplay:10.37,2013-08-25 22:30:00,
2013-08-25 17:35:00,98.8,62.0,29.95,NE,45,6.9,6.9,30,0.00,SCT,,0.00,WeatherDisplay:10.37,2013-08-25 22:35:00,
2013-08-25 17:40:00,99.0,62.1,29.95,NE,45,10.4,10.4,30,0.00,SCT,,0.00,WeatherDisplay:10.37,2013-08-25 22:40:00,
2013-08-25 17:45:00,98.4,61.6,29.95,NE,45,6.9,6.9,30,0.00,SCT,,0.00,WeatherDisplay:10.37,2013-08-25 22:45:00,
2013-08-25 17:50:00,97.9,61.2,29.95,NNE,22,5.8,5.8,30,0.00,SCT,,0.00,WeatherDisplay:10.37,2013-08-25 22:50:00,
2013-08-25 17:55:00,97.5,61.8,29.95,NNE,22,5.8,5.8,31,0.00,SCT,,0.00,WeatherDisplay:10.37,2013-08-25 22:55:00,
2013-08-25 18:00:00,98.1,62.3,29.95,ENE,68,8.1,8.1,31,0.00,SCT,,0.00,WeatherDisplay:10.37,2013-08-25 23:00:00,
2013-08-25 18:05:00,97.5,61.8,29.95,NE,45,8.1,8.1,31,0.00,SCT,,0.00,WeatherDisplay:10.37,2013-08-25 23:05:00,
2013-08-25 18:10:00,95.4,59.9,29.95,NE,45,9.2,9.2,31,0.00,SCT,,0.00,WeatherDisplay:10.37,2013-08-25 23:10:00,
2013-08-25 18:15:00,94.6,61.1,29.95,ENE,68,9.2,9.2,33,0.00,SCT,,0.00,WeatherDisplay:10.37,2013-08-25 23:15:00,
2013-08-25 18:20:00,94.3,60.8,29.95,ENE,68,10.4,10.4,33,0.00,SCT,,0.00,WeatherDisplay:10.37,2013-08-25 23:20:00,
2013-08-25 18:25:00,95.0,61.4,29.95,NNE,22,9.2,9.2,33,0.00,SCT,,0.00,WeatherDisplay:10.37,2013-08-25 23:25:00,
2013-08-25 18:30:00,94.8,61.2,29.95,ENE,68,9.2,9.2,33,0.00,SCT,,0.00,WeatherDisplay:10.37,2013-08-25 23:30:00,
2013-08-25 18:35:00,94.6,63.5,29.95,East,90,5.8,5.8,36,0.00,SCT,,0.00,WeatherDisplay:10.37,2013-08-25 23:35:00,
2013-08-25 18:40:00,94.3,63.2,29.95,NE,45,10.4,10.4,36,0.00,SCT,,0.00,WeatherDisplay:10.37,2013-08-25 23:40:00,
2013-08-25 18:45:00,93.7,62.8,29.95,NE,45,5.8,5.8,36,0.00,SCT,,0.00,WeatherDisplay:10.37,2013-08-25 23:45:00,
2013-08-25 18:50:00,93.0,62.1,29.98,ENE,68,8.1,8.1,36,0.00,SCT,,0.00,WeatherDisplay:10.37,2013-08-25 23:50:00,
2013-08-25 18:55:00,92.7,64.8,29.98,ENE,68,11.5,11.5,40,0.00,BKN,,0.00,WeatherDisplay:10.37,2013-08-25 23:55:00,
2013-08-25 19:00:00,92.3,64.5,29.98,East,90,8.1,8.1,40,0.00,BKN,,0.00,WeatherDisplay:10.37,2013-08-26 00:00:00,
2013-08-25 19:05:00,91.8,64.0,29.98,ENE,68,9.2,9.2,40,0.00,BKN,,0.00,WeatherDisplay:10.37,2013-08-26 00:05:00,
2013-08-25 19:10:00,91.6,63.8,29.98,SSE,158,8.1,8.1,40,0.00,OVC,,0.00,WeatherDisplay:10.37,2013-08-26 00:10:00,
2013-08-25 19:15:00,91.4,67.7,29.98,East,90,6.9,6.9,46,0.00,OVC,,0.00,WeatherDisplay:10.37,2013-08-26 00:15:00,
2013-08-25 19:20:00,90.7,67.1,29.95,East,90,4.6,4.6,46,0.00,OVC,,0.00,WeatherDisplay:10.37,2013-08-26 00:20:00,
2013-08-25 19:25:00,89.4,65.9,29.95,East,90,3.5,3.5,46,0.00,OVC,,0.00,WeatherDisplay:10.37,2013-08-26 00:25:00,
2013-08-25 19:30:00,89.2,65.8,29.95,East,90,5.8,5.8,46,0.00,OVC,,0.00,WeatherDisplay:10.37,2013-08-26 00:30:00,
2013-08-25 19:35:00,89.6,69.6,29.98,East,90,9.2,9.2,52,0.00,OVC,,0.00,WeatherDisplay:10.37,2013-08-26 00:35:00,
2013-08-25 19:41:00,89.6,69.6,29.98,NNE,22,4.6,4.7,52,0.00,OVC,,0.00,WeatherDisplay:10.37,2013-08-26 00:41:00,
2013-08-25 19:45:00,89.6,69.6,29.98,NE,45,9.2,9.2,52,0.00,OVC,,0.00,WeatherDisplay:10.37,2013-08-26 00:45:00,
2013-08-25 19:50:00,88.7,68.8,29.95,NE,45,12.7,12.7,52,0.00,OVC,,0.00,WeatherDisplay:10.37,2013-08-26 00:50:00,
2013-08-25 19:56:00,87.8,65.7,29.95,NNE,22,6.9,6.9,48,0.00,OVC,,0.00,WeatherDisplay:10.37,2013-08-26 00:56:00,
2013-08-25 20:01:00,87.4,65.3,29.95,ESE,112,8.1,8.1,48,0.00,OVC,,0.00,WeatherDisplay:10.37,2013-08-26 01:01:00,
2013-08-25 20:06:00,86.9,64.8,29.98,NE,45,10.4,10.4,48,0.00,OVC,,0.00,WeatherDisplay:10.37,2013-08-26 01:06:00,
2013-08-25 20:11:00,86.5,68.5,29.98,East,90,9.2,9.2,55,0.00,OVC,,0.00,WeatherDisplay:10.37,2013-08-26 01:11:00,
2013-08-25 20:16:00,86.2,68.1,29.98,NE,45,8.1,8.1,55,0.00,OVC,,0.00,WeatherDisplay:10.37,2013-08-26 01:16:00,
2013-08-25 20:21:00,86.0,68.0,29.98,NE,45,11.5,11.5,55,0.00,OVC,,0.00,WeatherDisplay:10.37,2013-08-26 01:21:00,
2013-08-25 20:26:00,85.8,67.8,29.98,ESE,112,5.8,5.8,55,0.00,OVC,,0.00,WeatherDisplay:10.37,2013-08-26 01:26:00,
2013-08-25 20:31:00,85.6,25.1,29.98,NE,45,8.1,8.1,11,0.00,SCT,,0.00,WeatherDisplay:10.37,2013-08-26 01:31:00,
2013-08-25 20:36:00,85.5,24.9,30.01,NE,45,3.5,3.5,11,0.00,SCT,,0.00,WeatherDisplay:10.37,2013-08-26 01:36:00,
2013-08-25 20:41:00,85.3,28.8,30.01,NE,45,5.8,5.8,13,0.00,SCT,,0.00,WeatherDisplay:10.37,2013-08-26 01:41:00,
2013-08-25 20:46:00,85.1,28.7,30.01,East,90,6.9,6.9,13,0.00,SCT,,0.00,WeatherDisplay:10.37,2013-08-26 01:46:00,
2013-08-25 20:51:00,85.1,28.7,30.01,ESE,112,6.9,6.9,13,0.00,CLR,,0.00,WeatherDisplay:10.37,2013-08-26 01:51:00,
2013-08-25 20:56:00,84.9,28.6,30.01,ENE,68,8.1,8.1,13,0.00,CLR,,0.00,WeatherDisplay:10.37,2013-08-26 01:56:00,
2013-08-25 21:01:00,84.7,28.4,30.01,ENE,68,8.1,8.1,13,0.00,CLR,,0.00,WeatherDisplay:10.37,2013-08-26 02:01:00,
2013-08-25 21:06:00,84.4,28.1,30.04,ENE,68,5.8,5.8,13,0.00,CLR,,0.00,WeatherDisplay:10.37,2013-08-26 02:06:00,
2013-08-25 21:11:00,84.2,28.0,30.04,East,90,8.1,8.1,13,0.00,CLR,,0.00,WeatherDisplay:10.37,2013-08-26 02:11:00,
2013-08-25 21:16:00,83.8,27.7,30.04,NNE,22,3.5,3.5,13,0.00,CLR,,0.00,WeatherDisplay:10.37,2013-08-26 02:16:00,
2013-08-25 21:21:00,83.7,27.6,30.04,ENE,68,4.6,4.6,13,0.00,CLR,,0.00,WeatherDisplay:10.37,2013-08-26 02:21:00,
2013-08-25 21:26:00,83.7,27.6,30.04,ENE,68,4.6,4.6,13,0.00,CLR,,0.00,WeatherDisplay:10.37,2013-08-26 02:26:00,
2013-08-25 21:31:00,83.5,27.4,30.04,ENE,68,5.8,5.8,13,0.00,CLR,,0.00,WeatherDisplay:10.37,2013-08-26 02:31:00,
2013-08-25 21:36:00,83.3,27.3,30.04,NE,45,8.1,8.1,13,0.00,CLR,,0.00,WeatherDisplay:10.37,2013-08-26 02:36:00,
2013-08-25 21:41:00,83.3,32.4,30.04,SE,135,4.6,4.6,16,0.00,CLR,,0.00,WeatherDisplay:10.37,2013-08-26 02:41:00,
2013-08-25 21:46:00,83.1,32.3,30.04,East,90,4.6,4.6,16,0.00,CLR,,0.00,WeatherDisplay:10.37,2013-08-26 02:46:00,
2013-08-25 21:51:00,82.9,32.1,30.04,SE,135,5.8,5.8,16,0.00,CLR,,0.00,WeatherDisplay:10.37,2013-08-26 02:51:00,
2013-08-25 21:56:00,82.9,32.1,30.04,NE,45,4.6,4.6,16,0.00,CLR,,0.00,WeatherDisplay:10.37,2013-08-26 02:56:00,
2013-08-25 22:01:00,82.8,32.0,30.04,NE,45,3.5,3.5,16,0.00,CLR,,0.00,WeatherDisplay:10.37,2013-08-26 03:01:00,
2013-08-25 22:06:00,82.6,31.8,30.01,NE,45,6.9,6.9,16,0.00,CLR,,0.00,WeatherDisplay:10.37,2013-08-26 03:06:00,
2013-08-25 22:11:00,82.6,31.8,30.01,North,0,4.6,4.6,16,0.00,CLR,,0.00,WeatherDisplay:10.37,2013-08-26 03:11:00,
2013-08-25 22:16:00,82.6,31.8,30.01,ESE,112,9.2,9.2,16,0.00,CLR,,0.00,WeatherDisplay:10.37,2013-08-26 03:16:00,
2013-08-25 22:21:00,82.6,31.8,30.04,ENE,68,5.8,6.2,16,0.00,CLR,,0.00,WeatherDisplay:10.37,2013-08-26 03:21:00,
2013-08-25 22:26:00,82.6,31.8,30.04,NE,45,5.8,5.8,16,0.00,CLR,,0.00,WeatherDisplay:10.37,2013-08-26 03:26:00,
2013-08-25 22:31:00,82.4,31.7,30.04,NE,45,4.6,4.6,16,0.00,SCT,,0.00,WeatherDisplay:10.37,2013-08-26 03:31:00,
2013-08-25 22:36:00,82.4,31.7,30.04,NE,45,5.8,5.8,16,0.00,SCT,,0.00,WeatherDisplay:10.37,2013-08-26 03:36:00,
2013-08-25 22:41:00,82.2,31.5,30.04,NE,45,6.9,6.9,16,0.00,SCT,,0.00,WeatherDisplay:10.37,2013-08-26 03:41:00,
2013-08-25 22:46:00,82.0,35.7,30.04,East,90,5.8,5.8,19,0.00,SCT,,0.00,WeatherDisplay:10.37,2013-08-26 03:46:00,
2013-08-25 22:51:00,82.0,35.7,30.04,NNE,22,5.8,5.8,19,0.00,BKN,,0.00,WeatherDisplay:10.37,2013-08-26 03:51:00,
2013-08-25 22:56:00,81.9,35.5,30.04,ENE,68,5.8,5.8,19,0.00,BKN,,0.00,WeatherDisplay:10.37,2013-08-26 03:56:00,
2013-08-25 23:01:00,81.7,35.4,30.04,North,0,3.5,3.5,19,0.00,BKN,,0.00,WeatherDisplay:10.37,2013-08-26 04:01:00,
2013-08-25 23:06:00,81.5,35.2,30.04,North,0,4.6,4.6,19,0.00,BKN,,0.00,WeatherDisplay:10.37,2013-08-26 04:06:00,
2013-08-25 23:11:00,81.3,35.1,30.04,ESE,112,5.8,5.8,19,0.00,BKN,,0.00,WeatherDisplay:10.37,2013-08-26 04:11:00,
2013-08-25 23:16:00,81.1,35.0,30.04,ENE,68,4.0,4.0,19,0.00,BKN,,0.00,WeatherDisplay:10.37,2013-08-26 04:16:00,
2013-08-25 23:21:00,81.0,34.8,30.07,ENE,68,4.6,4.6,19,0.00,BKN,,0.00,WeatherDisplay:10.37,2013-08-26 04:21:00,
2013-08-25 23:26:00,80.8,34.7,30.07,NE,45,9.2,9.2,19,0.00,BKN,,0.00,WeatherDisplay:10.37,2013-08-26 04:26:00,
2013-08-25 23:31:00,80.6,34.5,30.07,ENE,68,8.1,8.1,19,0.00,SCT,,0.00,WeatherDisplay:10.37,2013-08-26 04:31:00,
2013-08-25 23:36:00,80.4,34.4,30.04,NE,45,4.6,4.6,19,0.00,SCT,,0.00,WeatherDisplay:10.37,2013-08-26 04:36:00,
2013-08-25 23:41:00,80.4,34.4,30.04,NNE,22,4.6,4.6,19,0.00,SCT,,0.00,WeatherDisplay:10.37,2013-08-26 04:41:00,
2013-08-25 23:46:00,80.2,35.5,30.04,North,0,4.6,4.6,20,0.00,SCT,,0.00,WeatherDisplay:10.37,2013-08-26 04:46:00,
2013-08-25 23:51:00,80.1,35.4,30.04,NE,45,5.8,5.8,20,0.00,BKN,,0.00,WeatherDisplay:10.37,2013-08-26 04:51:00,
2013-08-25 23:56:00,79.9,35.2,30.04,ENE,68,4.6,4.6,20,0.00,BKN,,0.00,WeatherDisplay:10.37,2013-08-26 04:56:00,